sensor_id;sensor_type;location;lat;lon;timestamp;pressure;altitude;pressure_sealevel;temperature;humidity
11017;BME280;54687;50.800;6.772;2023-06-01T00:01:43;59627.94;;;-144.06;24.46
11017;BME280;54687;50.800;6.772;2023-06-01T00:04:11;59663.56;;;-144.06;24.61
11017;BME280;54687;50.800;6.772;2023-06-01T00:06:38;59663.56;;;-144.06;24.51
11017;BME280;54687;50.800;6.772;2023-06-01T00:09:05;59621.66;;;-144.06;24.56
11017;BME280;54687;50.800;6.772;2023-06-01T00:11:32;59638.44;;;-144.06;24.57
11017;BME280;54687;50.800;6.772;2023-06-01T00:13:59;59627.94;;;-144.06;24.61
11017;BME280;54687;50.800;6.772;2023-06-01T00:16:25;59651.00;;;-144.06;24.65
11017;BME280;54687;50.800;6.772;2023-06-01T00:18:53;59621.66;;;-144.06;24.72
11017;BME280;54687;50.800;6.772;2023-06-01T00:21:23;59615.38;;;-144.06;24.57
11017;BME280;54687;50.800;6.772;2023-06-01T00:23:49;59630.06;;;-144.06;24.69
11017;BME280;54687;50.800;6.772;2023-06-01T00:26:16;59638.44;;;-144.06;24.70
11017;BME280;54687;50.800;6.772;2023-06-01T00:28:43;59676.16;;;-144.06;24.67
11017;BME280;54687;50.800;6.772;2023-06-01T00:31:09;59621.66;;;-144.06;24.72
11017;BME280;54687;50.800;6.772;2023-06-01T00:33:37;59684.53;;;-144.06;24.63
11017;BME280;54687;50.800;6.772;2023-06-01T00:36:04;59655.19;;;-144.06;24.65
11017;BME280;54687;50.800;6.772;2023-06-01T00:38:32;59674.06;;;-144.06;24.50
11017;BME280;54687;50.800;6.772;2023-06-01T00:40:58;59638.44;;;-144.06;24.84
11017;BME280;54687;50.800;6.772;2023-06-01T00:43:25;59657.28;;;-144.06;24.67
11017;BME280;54687;50.800;6.772;2023-06-01T00:45:52;59653.09;;;-144.06;24.51
11017;BME280;54687;50.800;6.772;2023-06-01T00:48:19;59638.44;;;-144.06;24.68
11017;BME280;54687;50.800;6.772;2023-06-01T00:50:46;59669.84;;;-144.06;24.80
11017;BME280;54687;50.800;6.772;2023-06-01T00:53:16;59695.00;;;-144.06;24.85
11017;BME280;54687;50.800;6.772;2023-06-01T00:55:44;59684.53;;;-144.06;24.92
11017;BME280;54687;50.800;6.772;2023-06-01T00:58:11;59657.28;;;-144.06;24.95
11017;BME280;54687;50.800;6.772;2023-06-01T01:00:38;59680.34;;;-144.06;24.96
11017;BME280;54687;50.800;6.772;2023-06-01T01:03:05;59667.75;;;-144.06;24.85
11017;BME280;54687;50.800;6.772;2023-06-01T01:05:34;59688.72;;;-144.06;24.93
11017;BME280;54687;50.800;6.772;2023-06-01T01:08:12;59680.34;;;-144.06;25.17
11017;BME280;54687;50.800;6.772;2023-06-01T01:10:41;59695.00;;;-144.06;25.11
11017;BME280;54687;50.800;6.772;2023-06-01T01:13:14;59699.19;;;-144.06;25.18
11017;BME280;54687;50.800;6.772;2023-06-01T01:15:51;59728.53;;;-144.06;25.59
11017;BME280;54687;50.800;6.772;2023-06-01T01:18:24;59728.53;;;-144.06;25.37
11017;BME280;54687;50.800;6.772;2023-06-01T01:20:57;59692.91;;;-144.06;25.37
11017;BME280;54687;50.800;6.772;2023-06-01T01:23:43;59697.09;;;-144.06;25.33
11017;BME280;54687;50.800;6.772;2023-06-01T01:26:31;59730.63;;;-144.06;25.30
11017;BME280;54687;50.800;6.772;2023-06-01T01:29:06;59741.09;;;-144.06;25.64
11017;BME280;54687;50.800;6.772;2023-06-01T01:31:37;59739.00;;;-144.06;25.87
11017;BME280;54687;50.800;6.772;2023-06-01T01:34:05;59751.59;;;-144.06;25.63
11017;BME280;54687;50.800;6.772;2023-06-01T01:36:33;59776.72;;;-144.06;25.75
11017;BME280;54687;50.800;6.772;2023-06-01T01:39:00;59783.00;;;-144.06;25.53
11017;BME280;54687;50.800;6.772;2023-06-01T01:41:27;59720.16;;;-144.06;25.63
11017;BME280;54687;50.800;6.772;2023-06-01T01:43:54;59701.28;;;-144.06;25.60
11017;BME280;54687;50.800;6.772;2023-06-01T01:46:25;59713.88;;;-144.06;25.51
11017;BME280;54687;50.800;6.772;2023-06-01T01:49:00;59749.47;;;-144.06;25.41
11017;BME280;54687;50.800;6.772;2023-06-01T01:51:33;59734.81;;;-144.06;25.54
11017;BME280;54687;50.800;6.772;2023-06-01T01:54:04;59764.16;;;-144.06;25.54
11017;BME280;54687;50.800;6.772;2023-06-01T01:56:32;59720.16;;;-144.06;25.37
11017;BME280;54687;50.800;6.772;2023-06-01T01:59:01;59724.34;;;-144.06;25.54
11017;BME280;54687;50.800;6.772;2023-06-01T02:01:30;59762.06;;;-144.06;25.56
11017;BME280;54687;50.800;6.772;2023-06-01T02:03:59;59722.25;;;-144.06;25.77
11017;BME280;54687;50.800;6.772;2023-06-01T02:06:26;59755.78;;;-144.06;25.77
11017;BME280;54687;50.800;6.772;2023-06-01T02:08:52;59743.19;;;-144.06;25.82
11017;BME280;54687;50.800;6.772;2023-06-01T02:11:19;59713.88;;;-144.06;25.46
11017;BME280;54687;50.800;6.772;2023-06-01T02:13:46;59743.19;;;-144.06;25.56
11017;BME280;54687;50.800;6.772;2023-06-01T02:16:12;59728.53;;;-144.06;25.50
11017;BME280;54687;50.800;6.772;2023-06-01T02:18:41;59768.34;;;-144.06;25.83
11017;BME280;54687;50.800;6.772;2023-06-01T02:21:12;59726.44;;;-144.06;25.76
11017;BME280;54687;50.800;6.772;2023-06-01T02:23:38;59720.16;;;-144.06;25.90
11017;BME280;54687;50.800;6.772;2023-06-01T02:26:06;59751.59;;;-144.06;25.85
11017;BME280;54687;50.800;6.772;2023-06-01T02:28:32;59743.19;;;-144.06;25.71
11017;BME280;54687;50.800;6.772;2023-06-01T02:30:59;59736.91;;;-144.06;26.00
11017;BME280;54687;50.800;6.772;2023-06-01T02:33:26;59772.53;;;-144.06;25.85
11017;BME280;54687;50.800;6.772;2023-06-01T02:35:54;59772.53;;;-144.06;26.15
11017;BME280;54687;50.800;6.772;2023-06-01T02:38:22;59766.25;;;-144.06;26.25
11017;BME280;54687;50.800;6.772;2023-06-01T02:40:48;59780.91;;;-144.06;25.96
11017;BME280;54687;50.800;6.772;2023-06-01T02:43:15;59764.16;;;-144.06;26.13
11017;BME280;54687;50.800;6.772;2023-06-01T02:45:41;59747.38;;;-144.06;26.17
11017;BME280;54687;50.800;6.772;2023-06-01T02:48:08;59745.28;;;-144.06;26.22
11017;BME280;54687;50.800;6.772;2023-06-01T02:50:35;59795.59;;;-144.06;25.93
11017;BME280;54687;50.800;6.772;2023-06-01T02:53:03;59755.78;;;-144.06;26.13
11017;BME280;54687;50.800;6.772;2023-06-01T02:55:30;59812.34;;;-144.06;26.04
11017;BME280;54687;50.800;6.772;2023-06-01T02:57:57;59741.09;;;-144.06;25.84
11017;BME280;54687;50.800;6.772;2023-06-01T03:00:24;59755.78;;;-144.06;25.99
11017;BME280;54687;50.800;6.772;2023-06-01T03:02:52;59730.63;;;-144.06;25.88
11017;BME280;54687;50.800;6.772;2023-06-01T03:05:19;59759.97;;;-144.06;25.97
11017;BME280;54687;50.800;6.772;2023-06-01T03:07:46;59764.16;;;-144.06;25.80
11017;BME280;54687;50.800;6.772;2023-06-01T03:10:15;59755.78;;;-144.06;26.06
11017;BME280;54687;50.800;6.772;2023-06-01T03:12:41;59715.97;;;-144.06;25.84
11017;BME280;54687;50.800;6.772;2023-06-01T03:15:09;59749.47;;;-144.06;25.65
11017;BME280;54687;50.800;6.772;2023-06-01T03:17:36;59739.00;;;-144.06;25.78
11017;BME280;54687;50.800;6.772;2023-06-01T03:20:03;59774.63;;;-144.06;25.86
11017;BME280;54687;50.800;6.772;2023-06-01T03:22:40;59778.81;;;-144.06;25.72
11017;BME280;54687;50.800;6.772;2023-06-01T03:25:07;59743.19;;;-144.06;25.76
11017;BME280;54687;50.800;6.772;2023-06-01T03:27:35;59751.59;;;-144.06;25.88
11017;BME280;54687;50.800;6.772;2023-06-01T03:30:01;59778.81;;;-144.06;25.63
11017;BME280;54687;50.800;6.772;2023-06-01T03:32:29;59747.38;;;-144.06;25.76
11017;BME280;54687;50.800;6.772;2023-06-01T03:34:55;59755.78;;;-144.06;25.73
11017;BME280;54687;50.800;6.772;2023-06-01T03:37:22;59730.63;;;-144.06;25.82
11017;BME280;54687;50.800;6.772;2023-06-01T03:39:48;59728.53;;;-144.06;25.68
11017;BME280;54687;50.800;6.772;2023-06-01T03:42:15;59747.38;;;-144.06;25.68
11017;BME280;54687;50.800;6.772;2023-06-01T03:44:43;59732.72;;;-144.06;25.49
11017;BME280;54687;50.800;6.772;2023-06-01T03:47:09;59734.81;;;-144.06;25.58
11017;BME280;54687;50.800;6.772;2023-06-01T03:49:36;59741.09;;;-144.06;25.64
11017;BME280;54687;50.800;6.772;2023-06-01T03:52:04;59705.47;;;-144.06;25.78
11017;BME280;54687;50.800;6.772;2023-06-01T03:54:30;59720.16;;;-144.06;25.58
11017;BME280;54687;50.800;6.772;2023-06-01T03:56:57;59734.81;;;-144.06;25.77
11017;BME280;54687;50.800;6.772;2023-06-01T03:59:24;59730.63;;;-144.06;25.54
11017;BME280;54687;50.800;6.772;2023-06-01T04:01:52;59709.66;;;-144.06;25.48
11017;BME280;54687;50.800;6.772;2023-06-01T04:04:20;59726.44;;;-144.06;25.54
11017;BME280;54687;50.800;6.772;2023-06-01T04:06:49;59705.47;;;-144.06;25.62
11017;BME280;54687;50.800;6.772;2023-06-01T04:09:17;59734.81;;;-144.06;25.66
11017;BME280;54687;50.800;6.772;2023-06-01T04:11:44;59697.09;;;-144.06;25.80
11017;BME280;54687;50.800;6.772;2023-06-01T04:14:11;59728.53;;;-144.06;25.51
11017;BME280;54687;50.800;6.772;2023-06-01T04:16:37;59755.78;;;-144.06;25.65
11017;BME280;54687;50.800;6.772;2023-06-01T04:19:05;59709.66;;;-144.06;25.68
11017;BME280;54687;50.800;6.772;2023-06-01T04:21:32;59688.72;;;-144.06;25.74
11017;BME280;54687;50.800;6.772;2023-06-01T04:23:59;59726.44;;;-144.06;25.99
11017;BME280;54687;50.800;6.772;2023-06-01T04:26:25;59736.91;;;-144.06;25.98
11017;BME280;54687;50.800;6.772;2023-06-01T04:28:52;59701.28;;;-144.06;25.72
11017;BME280;54687;50.800;6.772;2023-06-01T04:31:22;59713.88;;;-144.06;25.68
11017;BME280;54687;50.800;6.772;2023-06-01T04:33:49;59692.91;;;-144.06;25.73
11017;BME280;54687;50.800;6.772;2023-06-01T04:36:19;59684.53;;;-144.06;25.76
11017;BME280;54687;50.800;6.772;2023-06-01T04:38:46;59667.75;;;-144.06;25.68
11017;BME280;54687;50.800;6.772;2023-06-01T04:41:16;59667.75;;;-144.06;25.70
11017;BME280;54687;50.800;6.772;2023-06-01T04:43:45;59667.75;;;-144.06;25.73
11017;BME280;54687;50.800;6.772;2023-06-01T04:46:17;59686.63;;;-144.06;25.71
11017;BME280;54687;50.800;6.772;2023-06-01T04:48:43;59671.97;;;-144.06;25.70
11017;BME280;54687;50.800;6.772;2023-06-01T04:51:10;59671.97;;;-144.06;25.66
11017;BME280;54687;50.800;6.772;2023-06-01T04:53:38;59663.56;;;-144.06;25.61
11017;BME280;54687;50.800;6.772;2023-06-01T04:56:05;59680.34;;;-144.06;25.86
11017;BME280;54687;50.800;6.772;2023-06-01T04:58:32;59671.97;;;-144.06;25.91
11017;BME280;54687;50.800;6.772;2023-06-01T05:00:58;59678.25;;;-144.06;25.83
11017;BME280;54687;50.800;6.772;2023-06-01T05:03:25;59667.75;;;-144.06;25.94
11017;BME280;54687;50.800;6.772;2023-06-01T05:05:52;59646.81;;;-144.06;25.91
11017;BME280;54687;50.800;6.772;2023-06-01T05:08:18;59697.09;;;-144.06;26.00
11017;BME280;54687;50.800;6.772;2023-06-01T05:10:46;59676.16;;;-144.06;26.20
11017;BME280;54687;50.800;6.772;2023-06-01T05:13:13;59667.75;;;-144.06;25.98
11017;BME280;54687;50.800;6.772;2023-06-01T05:15:40;59688.72;;;-144.06;25.79
11017;BME280;54687;50.800;6.772;2023-06-01T05:18:07;59674.06;;;-144.06;25.60
11017;BME280;54687;50.800;6.772;2023-06-01T05:20:34;59638.44;;;-144.06;25.59
11017;BME280;54687;50.800;6.772;2023-06-01T05:23:01;59646.81;;;-144.06;25.47
11017;BME280;54687;50.800;6.772;2023-06-01T05:25:27;59697.09;;;-144.06;25.87
11017;BME280;54687;50.800;6.772;2023-06-01T05:27:56;59697.09;;;-144.06;25.83
11017;BME280;54687;50.800;6.772;2023-06-01T05:30:23;59619.56;;;-144.06;25.73
11017;BME280;54687;50.800;6.772;2023-06-01T05:32:49;59692.91;;;-144.06;26.13
11017;BME280;54687;50.800;6.772;2023-06-01T05:35:16;59669.84;;;-144.06;26.00
11017;BME280;54687;50.800;6.772;2023-06-01T05:37:42;59621.66;;;-144.06;25.80
11017;BME280;54687;50.800;6.772;2023-06-01T05:40:10;59669.84;;;-144.06;25.78
11017;BME280;54687;50.800;6.772;2023-06-01T05:42:36;59667.75;;;-144.06;25.86
11017;BME280;54687;50.800;6.772;2023-06-01T05:45:06;59661.47;;;-144.06;25.81
11017;BME280;54687;50.800;6.772;2023-06-01T05:47:33;59638.44;;;-144.06;25.60
11017;BME280;54687;50.800;6.772;2023-06-01T05:49:59;59703.38;;;-144.06;25.87
11017;BME280;54687;50.800;6.772;2023-06-01T05:52:27;59665.66;;;-144.06;25.89
11017;BME280;54687;50.800;6.772;2023-06-01T05:54:53;59646.81;;;-144.06;25.52
11017;BME280;54687;50.800;6.772;2023-06-01T05:57:20;59569.28;;;-144.06;25.08
11017;BME280;54687;50.800;6.772;2023-06-01T05:59:47;59607.00;;;-144.06;25.19
11017;BME280;54687;50.800;6.772;2023-06-01T06:02:15;59563.00;;;-144.06;24.46
11017;BME280;54687;50.800;6.772;2023-06-01T06:04:42;59531.56;;;-144.06;24.68
11017;BME280;54687;50.800;6.772;2023-06-01T06:07:09;59489.66;;;-144.06;24.57
11017;BME280;54687;50.800;6.772;2023-06-01T06:09:36;59451.94;;;-144.06;24.09
11017;BME280;54687;50.800;6.772;2023-06-01T06:12:04;59401.66;;;-144.06;23.67
11017;BME280;54687;50.800;6.772;2023-06-01T06:14:32;59372.34;;;-144.06;23.38
11017;BME280;54687;50.800;6.772;2023-06-01T06:16:58;59357.66;;;-144.06;22.96
11017;BME280;54687;50.800;6.772;2023-06-01T06:19:26;59307.38;;;-144.06;22.83
11017;BME280;54687;50.800;6.772;2023-06-01T06:21:55;59263.38;;;-144.06;22.42
11017;BME280;54687;50.800;6.772;2023-06-01T06:24:21;59211.00;;;-144.06;21.93
11017;BME280;54687;50.800;6.772;2023-06-01T06:26:48;59169.09;;;-144.06;22.10
11017;BME280;54687;50.800;6.772;2023-06-01T06:29:15;59194.25;;;-144.06;22.28
11017;BME280;54687;50.800;6.772;2023-06-01T06:31:44;59257.09;;;-144.06;22.36
11017;BME280;54687;50.800;6.772;2023-06-01T06:34:11;59238.25;;;-144.06;22.13
11017;BME280;54687;50.800;6.772;2023-06-01T06:36:39;59206.81;;;-144.06;22.13
11017;BME280;54687;50.800;6.772;2023-06-01T06:39:06;59127.19;;;-144.06;21.95
11017;BME280;54687;50.800;6.772;2023-06-01T06:41:32;59173.28;;;-144.06;21.66
11017;BME280;54687;50.800;6.772;2023-06-01T06:43:59;59131.41;;;-144.06;21.35
11017;BME280;54687;50.800;6.772;2023-06-01T06:46:25;59185.88;;;-144.06;21.86
11017;BME280;54687;50.800;6.772;2023-06-01T06:48:52;59102.06;;;-144.06;21.38
11017;BME280;54687;50.800;6.772;2023-06-01T06:51:19;59146.06;;;-144.06;21.42
11017;BME280;54687;50.800;6.772;2023-06-01T06:53:48;59127.19;;;-144.06;21.40
11017;BME280;54687;50.800;6.772;2023-06-01T06:56:14;59190.06;;;-144.06;21.89
11017;BME280;54687;50.800;6.772;2023-06-01T06:58:41;59183.78;;;-144.06;21.87
11017;BME280;54687;50.800;6.772;2023-06-01T07:01:08;59215.19;;;-144.06;21.80
11017;BME280;54687;50.800;6.772;2023-06-01T07:03:35;59282.25;;;-144.06;22.20
11017;BME280;54687;50.800;6.772;2023-06-01T07:06:04;59307.38;;;-144.06;22.40
11017;BME280;54687;50.800;6.772;2023-06-01T07:08:30;59290.63;;;-144.06;22.25
11017;BME280;54687;50.800;6.772;2023-06-01T07:11:01;59299.00;;;-144.06;22.30
11017;BME280;54687;50.800;6.772;2023-06-01T07:13:28;59349.28;;;-144.06;22.61
11017;BME280;54687;50.800;6.772;2023-06-01T07:15:54;59319.94;;;-144.06;22.57
11017;BME280;54687;50.800;6.772;2023-06-01T07:18:21;59324.16;;;-144.06;22.46
11017;BME280;54687;50.800;6.772;2023-06-01T07:20:47;59345.09;;;-144.06;22.54
11017;BME280;54687;50.800;6.772;2023-06-01T07:23:15;59357.66;;;-144.06;22.86
11017;BME280;54687;50.800;6.772;2023-06-01T07:25:42;59416.34;;;-144.06;22.84
11017;BME280;54687;50.800;6.772;2023-06-01T07:28:10;59391.19;;;-144.06;22.75
11017;BME280;54687;50.800;6.772;2023-06-01T07:30:38;59399.56;;;-144.06;22.76
11017;BME280;54687;50.800;6.772;2023-06-01T07:33:07;59387.00;;;-144.06;23.04
11017;BME280;54687;50.800;6.772;2023-06-01T07:35:34;59395.38;;;-144.06;22.88
11017;BME280;54687;50.800;6.772;2023-06-01T07:38:00;59355.56;;;-144.06;22.80
11017;BME280;54687;50.800;6.772;2023-06-01T07:40:28;59412.13;;;-144.06;22.82
11017;BME280;54687;50.800;6.772;2023-06-01T07:42:55;59420.53;;;-144.06;22.88
11017;BME280;54687;50.800;6.772;2023-06-01T07:45:23;59372.34;;;-144.06;23.01
11017;BME280;54687;50.800;6.772;2023-06-01T07:47:49;59414.25;;;-144.06;23.28
11017;BME280;54687;50.800;6.772;2023-06-01T07:50:16;59393.28;;;-144.06;22.87
11017;BME280;54687;50.800;6.772;2023-06-01T07:52:44;59405.84;;;-144.06;23.01
11017;BME280;54687;50.800;6.772;2023-06-01T07:55:11;59378.63;;;-144.06;22.94
11017;BME280;54687;50.800;6.772;2023-06-01T07:57:37;59370.25;;;-144.06;22.97
11017;BME280;54687;50.800;6.772;2023-06-01T08:00:06;59391.19;;;-144.06;22.92
11017;BME280;54687;50.800;6.772;2023-06-01T08:02:40;59378.63;;;-144.06;22.73
11017;BME280;54687;50.800;6.772;2023-06-01T08:05:07;59407.94;;;-144.06;22.90
11017;BME280;54687;50.800;6.772;2023-06-01T08:07:35;59410.03;;;-144.06;23.10
11017;BME280;54687;50.800;6.772;2023-06-01T08:10:04;59433.09;;;-144.06;22.98
11017;BME280;54687;50.800;6.772;2023-06-01T08:12:30;59431.00;;;-144.06;23.13
11017;BME280;54687;50.800;6.772;2023-06-01T08:14:57;59445.66;;;-144.06;23.03
11017;BME280;54687;50.800;6.772;2023-06-01T08:17:24;59449.84;;;-144.06;23.08
11017;BME280;54687;50.800;6.772;2023-06-01T08:19:52;59416.34;;;-144.06;22.91
11017;BME280;54687;50.800;6.772;2023-06-01T08:22:20;59387.00;;;-144.06;23.06
11017;BME280;54687;50.800;6.772;2023-06-01T08:24:47;59403.75;;;-144.06;22.69
11017;BME280;54687;50.800;6.772;2023-06-01T08:27:17;59391.19;;;-144.06;22.78
11017;BME280;54687;50.800;6.772;2023-06-01T08:29:45;59336.72;;;-144.06;22.70
11017;BME280;54687;50.800;6.772;2023-06-01T08:32:12;59374.44;;;-144.06;22.74
11017;BME280;54687;50.800;6.772;2023-06-01T08:34:41;59447.75;;;-144.06;22.85
11017;BME280;54687;50.800;6.772;2023-06-01T08:37:09;59443.56;;;-144.06;23.20
11017;BME280;54687;50.800;6.772;2023-06-01T08:39:35;59437.28;;;-144.06;23.24
11017;BME280;54687;50.800;6.772;2023-06-01T08:42:07;59391.19;;;-144.06;22.94
11017;BME280;54687;50.800;6.772;2023-06-01T08:44:35;59475.00;;;-144.06;23.28
11017;BME280;54687;50.800;6.772;2023-06-01T08:47:03;59441.47;;;-144.06;23.27
11017;BME280;54687;50.800;6.772;2023-06-01T08:49:31;59454.03;;;-144.06;23.13
11017;BME280;54687;50.800;6.772;2023-06-01T08:52:00;59468.72;;;-144.06;23.32
11017;BME280;54687;50.800;6.772;2023-06-01T08:54:28;59460.31;;;-144.06;23.10
11017;BME280;54687;50.800;6.772;2023-06-01T08:56:57;59454.03;;;-144.06;22.94
11017;BME280;54687;50.800;6.772;2023-06-01T08:59:25;59449.84;;;-144.06;22.90
11017;BME280;54687;50.800;6.772;2023-06-01T09:01:53;59495.94;;;-144.06;23.39
11017;BME280;54687;50.800;6.772;2023-06-01T09:04:19;59479.19;;;-144.06;23.00
11017;BME280;54687;50.800;6.772;2023-06-01T09:06:46;59475.00;;;-144.06;23.00
11017;BME280;54687;50.800;6.772;2023-06-01T09:09:13;59462.44;;;-144.06;23.23
11017;BME280;54687;50.800;6.772;2023-06-01T09:11:42;59456.13;;;-144.06;22.96
11017;BME280;54687;50.800;6.772;2023-06-01T09:14:22;59466.63;;;-144.06;22.91
11017;BME280;54687;50.800;6.772;2023-06-01T09:16:49;59454.03;;;-144.06;23.11
11017;BME280;54687;50.800;6.772;2023-06-01T09:19:16;59451.94;;;-144.06;22.89
11017;BME280;54687;50.800;6.772;2023-06-01T09:21:56;59445.66;;;-144.06;23.09
11017;BME280;54687;50.800;6.772;2023-06-01T09:24:23;59533.66;;;-144.06;23.00
11017;BME280;54687;50.800;6.772;2023-06-01T09:27:00;59493.84;;;-144.06;23.24
11017;BME280;54687;50.800;6.772;2023-06-01T09:29:26;59449.84;;;-144.06;23.12
11017;BME280;54687;50.800;6.772;2023-06-01T09:31:53;59472.91;;;-144.06;22.79
11017;BME280;54687;50.800;6.772;2023-06-01T09:34:22;59449.84;;;-144.06;22.79
11017;BME280;54687;50.800;6.772;2023-06-01T09:36:50;59447.75;;;-144.06;23.30
11017;BME280;54687;50.800;6.772;2023-06-01T09:39:18;59433.09;;;-144.06;22.95
11017;BME280;54687;50.800;6.772;2023-06-01T09:41:52;59441.47;;;-144.06;22.72
11017;BME280;54687;50.800;6.772;2023-06-01T09:44:24;59449.84;;;-144.06;22.86
11017;BME280;54687;50.800;6.772;2023-06-01T09:46:52;59441.47;;;-144.06;22.88
11017;BME280;54687;50.800;6.772;2023-06-01T09:49:20;59420.53;;;-144.06;22.67
11017;BME280;54687;50.800;6.772;2023-06-01T09:51:48;59412.13;;;-144.06;22.50
11017;BME280;54687;50.800;6.772;2023-06-01T09:54:28;59382.81;;;-144.06;22.30
11017;BME280;54687;50.800;6.772;2023-06-01T09:56:58;59399.56;;;-144.06;22.48
11017;BME280;54687;50.800;6.772;2023-06-01T09:59:27;59393.28;;;-144.06;22.28
11017;BME280;54687;50.800;6.772;2023-06-01T10:01:56;59458.25;;;-144.06;22.60
11017;BME280;54687;50.800;6.772;2023-06-01T10:04:24;59458.25;;;-144.06;22.40
11017;BME280;54687;50.800;6.772;2023-06-01T10:06:53;59416.34;;;-144.06;22.28
11017;BME280;54687;50.800;6.772;2023-06-01T10:09:21;59382.81;;;-144.06;22.28
11017;BME280;54687;50.800;6.772;2023-06-01T10:11:52;59357.66;;;-144.06;22.29
11017;BME280;54687;50.800;6.772;2023-06-01T10:14:21;59422.63;;;-144.06;22.16
11017;BME280;54687;50.800;6.772;2023-06-01T10:16:50;59433.09;;;-144.06;22.40
11017;BME280;54687;50.800;6.772;2023-06-01T10:19:18;59483.38;;;-144.06;22.20
11017;BME280;54687;50.800;6.772;2023-06-01T10:21:46;59462.44;;;-144.06;22.47
11017;BME280;54687;50.800;6.772;2023-06-01T10:24:13;59445.66;;;-144.06;22.29
11017;BME280;54687;50.800;6.772;2023-06-01T10:26:48;59441.47;;;-144.06;22.14
11017;BME280;54687;50.800;6.772;2023-06-01T10:29:18;59403.75;;;-144.06;22.05
11017;BME280;54687;50.800;6.772;2023-06-01T10:31:46;59416.34;;;-144.06;21.97
11017;BME280;54687;50.800;6.772;2023-06-01T10:34:14;59437.28;;;-144.06;22.17
11017;BME280;54687;50.800;6.772;2023-06-01T10:37:15;59395.38;;;-144.06;22.29
11017;BME280;54687;50.800;6.772;2023-06-01T10:39:42;59395.38;;;-144.06;22.23
11017;BME280;54687;50.800;6.772;2023-06-01T10:42:35;59420.53;;;-144.06;22.07
11017;BME280;54687;50.800;6.772;2023-06-01T10:45:05;59416.34;;;-144.06;22.20
11017;BME280;54687;50.800;6.772;2023-06-01T10:47:48;59330.44;;;-144.06;21.91
11017;BME280;54687;50.800;6.772;2023-06-01T10:50:16;59347.19;;;-144.06;21.93
11017;BME280;54687;50.800;6.772;2023-06-01T10:52:43;59389.09;;;-144.06;21.55
11017;BME280;54687;50.800;6.772;2023-06-01T10:55:34;59336.72;;;-144.06;21.41
11017;BME280;54687;50.800;6.772;2023-06-01T10:58:20;59374.44;;;-144.06;21.79
11017;BME280;54687;50.800;6.772;2023-06-01T11:00:48;59340.91;;;-144.06;21.71
11017;BME280;54687;50.800;6.772;2023-06-01T11:03:42;59324.16;;;-144.06;21.59
11017;BME280;54687;50.800;6.772;2023-06-01T11:06:23;59313.66;;;-144.06;21.34
11017;BME280;54687;50.800;6.772;2023-06-01T11:08:54;59324.16;;;-144.06;21.34
11017;BME280;54687;50.800;6.772;2023-06-01T11:11:21;59366.03;;;-144.06;21.39
11017;BME280;54687;50.800;6.772;2023-06-01T11:14:07;59382.81;;;-144.06;21.56
11017;BME280;54687;50.800;6.772;2023-06-01T11:16:34;59374.44;;;-144.06;21.44
11017;BME280;54687;50.800;6.772;2023-06-01T11:19:04;59307.38;;;-144.06;21.37
11017;BME280;54687;50.800;6.772;2023-06-01T11:21:34;59353.47;;;-144.06;21.32
11017;BME280;54687;50.800;6.772;2023-06-01T11:24:05;59366.03;;;-144.06;21.77
11017;BME280;54687;50.800;6.772;2023-06-01T11:26:36;59374.44;;;-144.06;21.52
11017;BME280;54687;50.800;6.772;2023-06-01T11:29:09;59343.00;;;-144.06;21.68
11017;BME280;54687;50.800;6.772;2023-06-01T11:31:38;59370.25;;;-144.06;21.54
11017;BME280;54687;50.800;6.772;2023-06-01T11:34:08;59290.63;;;-144.06;21.43
11017;BME280;54687;50.800;6.772;2023-06-01T11:36:37;59294.81;;;-144.06;21.59
11017;BME280;54687;50.800;6.772;2023-06-01T11:39:04;59309.47;;;-144.06;21.37
11017;BME280;54687;50.800;6.772;2023-06-01T11:41:33;59278.06;;;-144.06;21.12
11017;BME280;54687;50.800;6.772;2023-06-01T11:44:00;59284.34;;;-144.06;21.14
11017;BME280;54687;50.800;6.772;2023-06-01T11:46:27;59311.56;;;-144.06;21.17
11017;BME280;54687;50.800;6.772;2023-06-01T11:49:01;59269.66;;;-144.06;21.32
11017;BME280;54687;50.800;6.772;2023-06-01T11:51:32;59315.75;;;-144.06;21.61
11017;BME280;54687;50.800;6.772;2023-06-01T11:54:00;59322.03;;;-144.06;21.76
11017;BME280;54687;50.800;6.772;2023-06-01T11:56:29;59326.25;;;-144.06;21.73
11017;BME280;54687;50.800;6.772;2023-06-01T11:58:57;59370.25;;;-144.06;22.00
11017;BME280;54687;50.800;6.772;2023-06-01T12:01:27;59303.19;;;-144.06;21.61
11017;BME280;54687;50.800;6.772;2023-06-01T12:03:54;59315.75;;;-144.06;21.55
11017;BME280;54687;50.800;6.772;2023-06-01T12:06:23;59345.09;;;-144.06;21.45
11017;BME280;54687;50.800;6.772;2023-06-01T12:08:52;59248.72;;;-144.06;21.19
11017;BME280;54687;50.800;6.772;2023-06-01T12:11:20;59255.00;;;-144.06;21.31
11017;BME280;54687;50.800;6.772;2023-06-01T12:13:49;59263.38;;;-144.06;21.05
11017;BME280;54687;50.800;6.772;2023-06-01T12:16:16;59190.06;;;-144.06;21.04
11017;BME280;54687;50.800;6.772;2023-06-01T12:18:43;59208.91;;;-144.06;20.97
11017;BME280;54687;50.800;6.772;2023-06-01T12:21:10;59227.75;;;-144.06;21.00
11017;BME280;54687;50.800;6.772;2023-06-01T12:23:37;59246.63;;;-144.06;21.04
11017;BME280;54687;50.800;6.772;2023-06-01T12:26:06;59257.09;;;-144.06;20.80
11017;BME280;54687;50.800;6.772;2023-06-01T12:28:50;59248.72;;;-144.06;20.78
11017;BME280;54687;50.800;6.772;2023-06-01T12:31:20;59240.34;;;-144.06;20.88
11017;BME280;54687;50.800;6.772;2023-06-01T12:33:47;59292.72;;;-144.06;21.24
11017;BME280;54687;50.800;6.772;2023-06-01T12:36:28;59231.97;;;-144.06;21.07
11017;BME280;54687;50.800;6.772;2023-06-01T12:38:57;59204.72;;;-144.06;20.65
11017;BME280;54687;50.800;6.772;2023-06-01T12:41:27;59380.72;;;-144.06;21.19
11017;BME280;54687;50.800;6.772;2023-06-01T12:43:54;59273.84;;;-144.06;20.89
11017;BME280;54687;50.800;6.772;2023-06-01T12:46:23;59227.75;;;-144.06;20.75
11017;BME280;54687;50.800;6.772;2023-06-01T12:48:52;59217.28;;;-144.06;20.64